sensor_id;sensor_type;location;lat;lon;timestamp;P1;durP1;ratioP1;P2;durP2;ratioP2
78336;SDS011;67610;51.588;7.002;2023-07-29T00:01:36;0.30;;;0.30;;
78336;SDS011;67610;51.588;7.002;2023-07-29T00:04:06;0.30;;;0.30;;
78336;SDS011;67610;51.588;7.002;2023-07-29T00:06:31;0.40;;;0.40;;
78336;SDS011;67610;51.588;7.002;2023-07-29T00:08:56;0.10;;;0.10;;
78336;SDS011;67610;51.588;7.002;2023-07-29T00:11:22;0.08;;;0.08;;
78336;SDS011;67610;51.588;7.002;2023-07-29T00:13:47;0.30;;;0.30;;
78336;SDS011;67610;51.588;7.002;2023-07-29T00:16:15;0.47;;;0.47;;
78336;SDS011;67610;51.588;7.002;2023-07-29T00:18:42;0.20;;;0.20;;
78336;SDS011;67610;51.588;7.002;2023-07-29T00:21:07;0.30;;;0.30;;
78336;SDS011;67610;51.588;7.002;2023-07-29T00:23:33;0.30;;;0.30;;
78336;SDS011;67610;51.588;7.002;2023-07-29T00:25:58;0.22;;;0.22;;
78336;SDS011;67610;51.588;7.002;2023-07-29T00:28:23;0.40;;;0.40;;
78336;SDS011;67610;51.588;7.002;2023-07-29T00:30:49;0.50;;;0.50;;
78336;SDS011;67610;51.588;7.002;2023-07-29T00:33:14;0.20;;;0.20;;
78336;SDS011;67610;51.588;7.002;2023-07-29T00:35:39;0.30;;;0.30;;
78336;SDS011;67610;51.588;7.002;2023-07-29T00:38:05;0.38;;;0.38;;
78336;SDS011;67610;51.588;7.002;2023-07-29T00:40:30;0.30;;;0.30;;
78336;SDS011;67610;51.588;7.002;2023-07-29T00:43:00;0.30;;;0.30;;
78336;SDS011;67610;51.588;7.002;2023-07-29T00:45:25;0.40;;;0.40;;
78336;SDS011;67610;51.588;7.002;2023-07-29T00:47:52;0.30;;;0.30;;
78336;SDS011;67610;51.588;7.002;2023-07-29T00:50:18;0.60;;;0.60;;
78336;SDS011;67610;51.588;7.002;2023-07-29T00:52:43;0.22;;;0.22;;
78336;SDS011;67610;51.588;7.002;2023-07-29T00:55:09;0.38;;;0.38;;
78336;SDS011;67610;51.588;7.002;2023-07-29T00:57:35;0.45;;;0.45;;
78336;SDS011;67610;51.588;7.002;2023-07-29T01:00:00;0.35;;;0.35;;
78336;SDS011;67610;51.588;7.002;2023-07-29T01:02:26;0.20;;;0.20;;
78336;SDS011;67610;51.588;7.002;2023-07-29T01:12:36;0.00;;;0.00;;
78336;SDS011;67610;51.588;7.002;2023-07-29T01:17:52;0.00;;;0.00;;
78336;SDS011;67610;51.588;7.002;2023-07-29T01:20:20;0.00;;;0.00;;
78336;SDS011;67610;51.588;7.002;2023-07-29T01:22:48;0.00;;;0.00;;
78336;SDS011;67610;51.588;7.002;2023-07-29T01:25:14;0.00;;;0.00;;
78336;SDS011;67610;51.588;7.002;2023-07-29T01:27:41;0.00;;;0.00;;
78336;SDS011;67610;51.588;7.002;2023-07-29T01:30:08;0.00;;;0.00;;
78336;SDS011;67610;51.588;7.002;2023-07-29T01:38:04;0.00;;;0.00;;
78336;SDS011;67610;51.588;7.002;2023-07-29T01:40:34;0.00;;;0.00;;
78336;SDS011;67610;51.588;7.002;2023-07-29T01:43:00;0.00;;;0.00;;
78336;SDS011;67610;51.588;7.002;2023-07-29T01:45:26;0.08;;;0.08;;
78336;SDS011;67610;51.588;7.002;2023-07-29T01:47:51;0.00;;;0.00;;
78336;SDS011;67610;51.588;7.002;2023-07-29T01:50:17;0.00;;;0.00;;
78336;SDS011;67610;51.588;7.002;2023-07-29T01:52:42;0.00;;;0.00;;
78336;SDS011;67610;51.588;7.002;2023-07-29T01:55:08;0.00;;;0.00;;
78336;SDS011;67610;51.588;7.002;2023-07-29T01:57:36;0.00;;;0.00;;
78336;SDS011;67610;51.588;7.002;2023-07-29T02:00:02;0.00;;;0.00;;
78336;SDS011;67610;51.588;7.002;2023-07-29T02:02:29;0.00;;;0.00;;
78336;SDS011;67610;51.588;7.002;2023-07-29T02:04:54;0.00;;;0.00;;
78336;SDS011;67610;51.588;7.002;2023-07-29T02:07:21;0.10;;;0.10;;
78336;SDS011;67610;51.588;7.002;2023-07-29T02:09:46;0.10;;;0.10;;
78336;SDS011;67610;51.588;7.002;2023-07-29T02:12:12;0.00;;;0.00;;
78336;SDS011;67610;51.588;7.002;2023-07-29T02:14:37;0.00;;;0.00;;
78336;SDS011;67610;51.588;7.002;2023-07-29T02:17:02;0.00;;;0.00;;
78336;SDS011;67610;51.588;7.002;2023-07-29T02:19:28;0.00;;;0.00;;
78336;SDS011;67610;51.588;7.002;2023-07-29T02:21:53;0.00;;;0.00;;
78336;SDS011;67610;51.588;7.002;2023-07-29T02:24:19;0.00;;;0.00;;
78336;SDS011;67610;51.588;7.002;2023-07-29T02:26:44;0.00;;;0.00;;
78336;SDS011;67610;51.588;7.002;2023-07-29T02:29:09;0.00;;;0.00;;
78336;SDS011;67610;51.588;7.002;2023-07-29T02:34:03;0.00;;;0.00;;
78336;SDS011;67610;51.588;7.002;2023-07-29T02:36:29;0.10;;;0.10;;
78336;SDS011;67610;51.588;7.002;2023-07-29T02:38:54;0.00;;;0.00;;
78336;SDS011;67610;51.588;7.002;2023-07-29T02:41:20;0.00;;;0.00;;
78336;SDS011;67610;51.588;7.002;2023-07-29T02:43:48;0.00;;;0.00;;
78336;SDS011;67610;51.588;7.002;2023-07-29T02:46:15;0.00;;;0.00;;
78336;SDS011;67610;51.588;7.002;2023-07-29T02:48:41;0.00;;;0.00;;
78336;SDS011;67610;51.588;7.002;2023-07-29T02:51:07;0.00;;;0.00;;
78336;SDS011;67610;51.588;7.002;2023-07-29T02:53:32;0.00;;;0.00;;
78336;SDS011;67610;51.588;7.002;2023-07-29T02:55:58;0.00;;;0.00;;
78336;SDS011;67610;51.588;7.002;2023-07-29T02:58:23;0.10;;;0.10;;
78336;SDS011;67610;51.588;7.002;2023-07-29T03:00:48;0.00;;;0.00;;
78336;SDS011;67610;51.588;7.002;2023-07-29T03:03:15;0.00;;;0.00;;
78336;SDS011;67610;51.588;7.002;2023-07-29T03:05:40;0.00;;;0.00;;
78336;SDS011;67610;51.588;7.002;2023-07-29T03:08:06;0.00;;;0.00;;
78336;SDS011;67610;51.588;7.002;2023-07-29T03:10:31;0.00;;;0.00;;
78336;SDS011;67610;51.588;7.002;2023-07-29T03:12:56;0.10;;;0.10;;
78336;SDS011;67610;51.588;7.002;2023-07-29T03:15:25;0.00;;;0.00;;
78336;SDS011;67610;51.588;7.002;2023-07-29T03:17:51;0.00;;;0.00;;
78336;SDS011;67610;51.588;7.002;2023-07-29T03:20:17;0.00;;;0.00;;
78336;SDS011;67610;51.588;7.002;2023-07-29T03:22:43;0.00;;;0.00;;
78336;SDS011;67610;51.588;7.002;2023-07-29T03:25:09;0.00;;;0.00;;
78336;SDS011;67610;51.588;7.002;2023-07-29T03:27:34;0.00;;;0.00;;
78336;SDS011;67610;51.588;7.002;2023-07-29T03:30:01;0.00;;;0.00;;
78336;SDS011;67610;51.588;7.002;2023-07-29T03:32:29;0.00;;;0.00;;
78336;SDS011;67610;51.588;7.002;2023-07-29T03:34:55;0.00;;;0.00;;
78336;SDS011;67610;51.588;7.002;2023-07-29T03:37:20;0.00;;;0.00;;
78336;SDS011;67610;51.588;7.002;2023-07-29T03:39:46;0.00;;;0.00;;
78336;SDS011;67610;51.588;7.002;2023-07-29T03:42:12;0.00;;;0.00;;
78336;SDS011;67610;51.588;7.002;2023-07-29T03:44:37;0.00;;;0.00;;
78336;SDS011;67610;51.588;7.002;2023-07-29T03:47:04;0.00;;;0.00;;
78336;SDS011;67610;51.588;7.002;2023-07-29T03:49:30;0.00;;;0.00;;
78336;SDS011;67610;51.588;7.002;2023-07-29T03:51:56;0.00;;;0.00;;
78336;SDS011;67610;51.588;7.002;2023-07-29T03:54:21;0.00;;;0.00;;
78336;SDS011;67610;51.588;7.002;2023-07-29T03:56:46;0.15;;;0.15;;
78336;SDS011;67610;51.588;7.002;2023-07-29T03:59:12;0.00;;;0.00;;
78336;SDS011;67610;51.588;7.002;2023-07-29T04:01:37;0.00;;;0.00;;
78336;SDS011;67610;51.588;7.002;2023-07-29T04:04:02;0.00;;;0.00;;
78336;SDS011;67610;51.588;7.002;2023-07-29T04:06:28;0.00;;;0.00;;
78336;SDS011;67610;51.588;7.002;2023-07-29T04:08:53;0.00;;;0.00;;
78336;SDS011;67610;51.588;7.002;2023-07-29T04:11:19;0.00;;;0.00;;
78336;SDS011;67610;51.588;7.002;2023-07-29T04:13:45;0.00;;;0.00;;
78336;SDS011;67610;51.588;7.002;2023-07-29T04:16:10;0.00;;;0.00;;
78336;SDS011;67610;51.588;7.002;2023-07-29T04:18:35;0.00;;;0.00;;
78336;SDS011;67610;51.588;7.002;2023-07-29T04:21:01;0.00;;;0.00;;
78336;SDS011;67610;51.588;7.002;2023-07-29T04:23:26;0.00;;;0.00;;
78336;SDS011;67610;51.588;7.002;2023-07-29T04:25:51;0.00;;;0.00;;
78336;SDS011;67610;51.588;7.002;2023-07-29T04:28:17;0.00;;;0.00;;
78336;SDS011;67610;51.588;7.002;2023-07-29T04:30:42;0.08;;;0.08;;
78336;SDS011;67610;51.588;7.002;2023-07-29T04:33:07;0.00;;;0.00;;
78336;SDS011;67610;51.588;7.002;2023-07-29T04:35:33;0.10;;;0.10;;
78336;SDS011;67610;51.588;7.002;2023-07-29T04:37:58;0.00;;;0.00;;
78336;SDS011;67610;51.588;7.002;2023-07-29T04:40:23;0.00;;;0.00;;
78336;SDS011;67610;51.588;7.002;2023-07-29T04:42:49;0.00;;;0.00;;
78336;SDS011;67610;51.588;7.002;2023-07-29T04:45:16;0.00;;;0.00;;
78336;SDS011;67610;51.588;7.002;2023-07-29T04:47:41;0.00;;;0.00;;
78336;SDS011;67610;51.588;7.002;2023-07-29T04:50:07;0.00;;;0.00;;
78336;SDS011;67610;51.588;7.002;2023-07-29T04:52:33;0.00;;;0.00;;
78336;SDS011;67610;51.588;7.002;2023-07-29T04:54:58;0.00;;;0.00;;
78336;SDS011;67610;51.588;7.002;2023-07-29T04:57:23;0.00;;;0.00;;
78336;SDS011;67610;51.588;7.002;2023-07-29T04:59:49;0.00;;;0.00;;
78336;SDS011;67610;51.588;7.002;2023-07-29T05:02:14;0.00;;;0.00;;
78336;SDS011;67610;51.588;7.002;2023-07-29T05:04:40;0.00;;;0.00;;
78336;SDS011;67610;51.588;7.002;2023-07-29T05:07:05;0.00;;;0.00;;
78336;SDS011;67610;51.588;7.002;2023-07-29T05:09:31;0.00;;;0.00;;
78336;SDS011;67610;51.588;7.002;2023-07-29T05:11:56;0.10;;;0.10;;
78336;SDS011;67610;51.588;7.002;2023-07-29T05:14:22;0.00;;;0.00;;
78336;SDS011;67610;51.588;7.002;2023-07-29T05:16:47;0.00;;;0.00;;
78336;SDS011;67610;51.588;7.002;2023-07-29T05:19:13;0.00;;;0.00;;
78336;SDS011;67610;51.588;7.002;2023-07-29T05:21:38;0.00;;;0.00;;
78336;SDS011;67610;51.588;7.002;2023-07-29T05:24:04;0.00;;;0.00;;
78336;SDS011;67610;51.588;7.002;2023-07-29T05:26:29;0.00;;;0.00;;
78336;SDS011;67610;51.588;7.002;2023-07-29T05:28:55;0.00;;;0.00;;
78336;SDS011;67610;51.588;7.002;2023-07-29T05:31:21;0.00;;;0.00;;
78336;SDS011;67610;51.588;7.002;2023-07-29T05:33:47;0.00;;;0.00;;
78336;SDS011;67610;51.588;7.002;2023-07-29T05:36:12;0.00;;;0.00;;
78336;SDS011;67610;51.588;7.002;2023-07-29T05:38:38;0.00;;;0.00;;
78336;SDS011;67610;51.588;7.002;2023-07-29T05:41:03;0.00;;;0.00;;
78336;SDS011;67610;51.588;7.002;2023-07-29T05:43:28;0.00;;;0.00;;
78336;SDS011;67610;51.588;7.002;2023-07-29T05:45:54;0.00;;;0.00;;
78336;SDS011;67610;51.588;7.002;2023-07-29T05:48:19;0.00;;;0.00;;
78336;SDS011;67610;51.588;7.002;2023-07-29T05:50:44;0.00;;;0.00;;
78336;SDS011;67610;51.588;7.002;2023-07-29T05:53:10;0.00;;;0.00;;
78336;SDS011;67610;51.588;7.002;2023-07-29T05:55:35;0.00;;;0.00;;
78336;SDS011;67610;51.588;7.002;2023-07-29T05:58:01;0.00;;;0.00;;
78336;SDS011;67610;51.588;7.002;2023-07-29T06:00:26;0.00;;;0.00;;
78336;SDS011;67610;51.588;7.002;2023-07-29T06:02:51;0.00;;;0.00;;
78336;SDS011;67610;51.588;7.002;2023-07-29T06:05:17;0.00;;;0.00;;
78336;SDS011;67610;51.588;7.002;2023-07-29T06:07:42;0.00;;;0.00;;
78336;SDS011;67610;51.588;7.002;2023-07-29T06:10:12;0.00;;;0.00;;
78336;SDS011;67610;51.588;7.002;2023-07-29T06:12:39;0.00;;;0.00;;
78336;SDS011;67610;51.588;7.002;2023-07-29T06:15:04;0.00;;;0.00;;
78336;SDS011;67610;51.588;7.002;2023-07-29T06:17:30;0.00;;;0.00;;
78336;SDS011;67610;51.588;7.002;2023-07-29T06:19:56;0.00;;;0.00;;
78336;SDS011;67610;51.588;7.002;2023-07-29T06:22:21;0.00;;;0.00;;
78336;SDS011;67610;51.588;7.002;2023-07-29T06:24:46;0.00;;;0.00;;
78336;SDS011;67610;51.588;7.002;2023-07-29T06:27:12;0.00;;;0.00;;
78336;SDS011;67610;51.588;7.002;2023-07-29T06:29:37;0.00;;;0.00;;
78336;SDS011;67610;51.588;7.002;2023-07-29T06:32:03;0.00;;;0.00;;
78336;SDS011;67610;51.588;7.002;2023-07-29T06:34:28;0.00;;;0.00;;
78336;SDS011;67610;51.588;7.002;2023-07-29T06:36:53;0.00;;;0.00;;
78336;SDS011;67610;51.588;7.002;2023-07-29T06:39:19;0.00;;;0.00;;
78336;SDS011;67610;51.588;7.002;2023-07-29T06:41:44;0.00;;;0.00;;
78336;SDS011;67610;51.588;7.002;2023-07-29T06:44:09;0.00;;;0.00;;
78336;SDS011;67610;51.588;7.002;2023-07-29T06:46:35;0.00;;;0.00;;
78336;SDS011;67610;51.588;7.002;2023-07-29T06:49:00;0.00;;;0.00;;
78336;SDS011;67610;51.588;7.002;2023-07-29T06:51:26;0.00;;;0.00;;
78336;SDS011;67610;51.588;7.002;2023-07-29T06:53:51;0.00;;;0.00;;
78336;SDS011;67610;51.588;7.002;2023-07-29T06:56:17;0.00;;;0.00;;
78336;SDS011;67610;51.588;7.002;2023-07-29T06:58:42;0.00;;;0.00;;
78336;SDS011;67610;51.588;7.002;2023-07-29T07:01:08;0.00;;;0.00;;
78336;SDS011;67610;51.588;7.002;2023-07-29T07:03:33;0.00;;;0.00;;
78336;SDS011;67610;51.588;7.002;2023-07-29T07:05:59;0.00;;;0.00;;
78336;SDS011;67610;51.588;7.002;2023-07-29T07:08:24;0.00;;;0.00;;
78336;SDS011;67610;51.588;7.002;2023-07-29T07:10:49;0.00;;;0.00;;
78336;SDS011;67610;51.588;7.002;2023-07-29T07:13:15;0.00;;;0.00;;
78336;SDS011;67610;51.588;7.002;2023-07-29T07:15:40;0.00;;;0.00;;
78336;SDS011;67610;51.588;7.002;2023-07-29T07:18:05;0.00;;;0.00;;
78336;SDS011;67610;51.588;7.002;2023-07-29T07:20:31;0.00;;;0.00;;
78336;SDS011;67610;51.588;7.002;2023-07-29T07:22:56;0.00;;;0.00;;
78336;SDS011;67610;51.588;7.002;2023-07-29T07:25:22;0.00;;;0.00;;
78336;SDS011;67610;51.588;7.002;2023-07-29T07:27:47;0.00;;;0.00;;
78336;SDS011;67610;51.588;7.002;2023-07-29T07:30:13;0.10;;;0.10;;
78336;SDS011;67610;51.588;7.002;2023-07-29T07:32:39;0.10;;;0.10;;
78336;SDS011;67610;51.588;7.002;2023-07-29T07:35:04;0.20;;;0.20;;
78336;SDS011;67610;51.588;7.002;2023-07-29T07:37:30;0.00;;;0.00;;
78336;SDS011;67610;51.588;7.002;2023-07-29T07:39:55;0.00;;;0.00;;
78336;SDS011;67610;51.588;7.002;2023-07-29T07:42:21;0.00;;;0.00;;
78336;SDS011;67610;51.588;7.002;2023-07-29T07:44:46;0.00;;;0.00;;
78336;SDS011;67610;51.588;7.002;2023-07-29T07:47:12;0.00;;;0.00;;
78336;SDS011;67610;51.588;7.002;2023-07-29T07:49:37;0.08;;;0.08;;
78336;SDS011;67610;51.588;7.002;2023-07-29T07:52:02;0.00;;;0.00;;
78336;SDS011;67610;51.588;7.002;2023-07-29T07:54:28;0.00;;;0.00;;
78336;SDS011;67610;51.588;7.002;2023-07-29T07:56:53;0.00;;;0.00;;
78336;SDS011;67610;51.588;7.002;2023-07-29T07:59:19;0.10;;;0.10;;
78336;SDS011;67610;51.588;7.002;2023-07-29T08:01:44;0.00;;;0.00;;
78336;SDS011;67610;51.588;7.002;2023-07-29T08:04:10;0.00;;;0.00;;
78336;SDS011;67610;51.588;7.002;2023-07-29T08:06:35;0.00;;;0.00;;
78336;SDS011;67610;51.588;7.002;2023-07-29T08:09:00;0.00;;;0.00;;
78336;SDS011;67610;51.588;7.002;2023-07-29T08:11:26;0.08;;;0.08;;
78336;SDS011;67610;51.588;7.002;2023-07-29T08:13:51;0.00;;;0.00;;
78336;SDS011;67610;51.588;7.002;2023-07-29T08:16:17;0.10;;;0.10;;
78336;SDS011;67610;51.588;7.002;2023-07-29T08:18:42;0.00;;;0.00;;
78336;SDS011;67610;51.588;7.002;2023-07-29T08:21:08;0.00;;;0.00;;
78336;SDS011;67610;51.588;7.002;2023-07-29T08:23:34;0.00;;;0.00;;
78336;SDS011;67610;51.588;7.002;2023-07-29T08:26:01;0.10;;;0.10;;
78336;SDS011;67610;51.588;7.002;2023-07-29T08:28:36;0.00;;;0.00;;
78336;SDS011;67610;51.588;7.002;2023-07-29T08:31:03;0.00;;;0.00;;
78336;SDS011;67610;51.588;7.002;2023-07-29T08:33:29;0.00;;;0.00;;
78336;SDS011;67610;51.588;7.002;2023-07-29T08:35:56;0.10;;;0.10;;
78336;SDS011;67610;51.588;7.002;2023-07-29T08:38:22;0.00;;;0.00;;
78336;SDS011;67610;51.588;7.002;2023-07-29T08:43:25;0.10;;;0.10;;
78336;SDS011;67610;51.588;7.002;2023-07-29T08:45:57;0.10;;;0.10;;
78336;SDS011;67610;51.588;7.002;2023-07-29T08:48:28;0.00;;;0.00;;
78336;SDS011;67610;51.588;7.002;2023-07-29T08:50:57;0.10;;;0.10;;
78336;SDS011;67610;51.588;7.002;2023-07-29T08:53:26;0.10;;;0.10;;
78336;SDS011;67610;51.588;7.002;2023-07-29T08:55:52;0.10;;;0.10;;
78336;SDS011;67610;51.588;7.002;2023-07-29T08:58:18;0.00;;;0.00;;
78336;SDS011;67610;51.588;7.002;2023-07-29T09:00:44;0.10;;;0.10;;
78336;SDS011;67610;51.588;7.002;2023-07-29T09:03:11;0.10;;;0.10;;
78336;SDS011;67610;51.588;7.002;2023-07-29T09:05:36;0.10;;;0.10;;
78336;SDS011;67610;51.588;7.002;2023-07-29T09:08:02;0.10;;;0.10;;
78336;SDS011;67610;51.588;7.002;2023-07-29T09:10:29;0.20;;;0.20;;
78336;SDS011;67610;51.588;7.002;2023-07-29T09:12:54;0.00;;;0.00;;
78336;SDS011;67610;51.588;7.002;2023-07-29T09:15:29;0.10;;;0.10;;
78336;SDS011;67610;51.588;7.002;2023-07-29T09:17:56;0.08;;;0.08;;
78336;SDS011;67610;51.588;7.002;2023-07-29T09:20:26;0.10;;;0.10;;
78336;SDS011;67610;51.588;7.002;2023-07-29T09:22:58;0.00;;;0.00;;
78336;SDS011;67610;51.588;7.002;2023-07-29T09:25:27;0.00;;;0.00;;
78336;SDS011;67610;51.588;7.002;2023-07-29T09:27:58;0.00;;;0.00;;
78336;SDS011;67610;51.588;7.002;2023-07-29T09:30:25;0.00;;;0.00;;
78336;SDS011;67610;51.588;7.002;2023-07-29T09:32:57;0.10;;;0.10;;
78336;SDS011;67610;51.588;7.002;2023-07-29T09:35:23;0.00;;;0.00;;
78336;SDS011;67610;51.588;7.002;2023-07-29T09:37:53;0.00;;;0.00;;
78336;SDS011;67610;51.588;7.002;2023-07-29T09:40:18;0.10;;;0.10;;
78336;SDS011;67610;51.588;7.002;2023-07-29T09:42:51;0.00;;;0.00;;
78336;SDS011;67610;51.588;7.002;2023-07-29T09:45:25;0.10;;;0.10;;
78336;SDS011;67610;51.588;7.002;2023-07-29T09:47:54;0.08;;;0.08;;
78336;SDS011;67610;51.588;7.002;2023-07-29T09:50:25;0.00;;;0.00;;
78336;SDS011;67610;51.588;7.002;2023-07-29T09:52:51;0.10;;;0.10;;
78336;SDS011;67610;51.588;7.002;2023-07-29T09:55:18;0.00;;;0.00;;
78336;SDS011;67610;51.588;7.002;2023-07-29T09:57:45;0.17;;;0.17;;
78336;SDS011;67610;51.588;7.002;2023-07-29T10:00:11;0.00;;;0.00;;
78336;SDS011;67610;51.588;7.002;2023-07-29T10:02:38;0.10;;;0.10;;
78336;SDS011;67610;51.588;7.002;2023-07-29T10:07:31;0.00;;;0.00;;
78336;SDS011;67610;51.588;7.002;2023-07-29T10:09:57;0.00;;;0.00;;
78336;SDS011;67610;51.588;7.002;2023-07-29T10:12:22;0.00;;;0.00;;
78336;SDS011;67610;51.588;7.002;2023-07-29T10:14:50;0.10;;;0.10;;
78336;SDS011;67610;51.588;7.002;2023-07-29T10:17:15;0.10;;;0.10;;
78336;SDS011;67610;51.588;7.002;2023-07-29T10:19:41;0.00;;;0.00;;
78336;SDS011;67610;51.588;7.002;2023-07-29T10:22:09;0.00;;;0.00;;
78336;SDS011;67610;51.588;7.002;2023-07-29T10:24:36;0.10;;;0.10;;
78336;SDS011;67610;51.588;7.002;2023-07-29T10:27:06;0.00;;;0.00;;
78336;SDS011;67610;51.588;7.002;2023-07-29T10:29:38;0.10;;;0.10;;
78336;SDS011;67610;51.588;7.002;2023-07-29T10:32:09;0.00;;;0.00;;
78336;SDS011;67610;51.588;7.002;2023-07-29T10:34:36;0.00;;;0.00;;
78336;SDS011;67610;51.588;7.002;2023-07-29T10:37:03;0.10;;;0.10;;
78336;SDS011;67610;51.588;7.002;2023-07-29T10:39:37;0.05;;;0.05;;
78336;SDS011;67610;51.588;7.002;2023-07-29T10:42:16;0.15;;;0.15;;
78336;SDS011;67610;51.588;7.002;2023-07-29T10:47:11;0.00;;;0.00;;
78336;SDS011;67610;51.588;7.002;2023-07-29T10:49:58;0.00;;;0.00;;
78336;SDS011;67610;51.588;7.002;2023-07-29T10:52:57;0.00;;;0.00;;
78336;SDS011;67610;51.588;7.002;2023-07-29T10:55:23;0.00;;;0.00;;
78336;SDS011;67610;51.588;7.002;2023-07-29T10:58:05;0.10;;;0.10;;
78336;SDS011;67610;51.588;7.002;2023-07-29T11:00:30;0.00;;;0.00;;
78336;SDS011;67610;51.588;7.002;2023-07-29T11:03:01;0.00;;;0.00;;
78336;SDS011;67610;51.588;7.002;2023-07-29T11:08:19;0.00;;;0.00;;
78336;SDS011;67610;51.588;7.002;2023-07-29T11:10:59;0.00;;;0.00;;
78336;SDS011;67610;51.588;7.002;2023-07-29T11:13:28;0.00;;;0.00;;
78336;SDS011;67610;51.588;7.002;2023-07-29T11:15:54;0.00;;;0.00;;
78336;SDS011;67610;51.588;7.002;2023-07-29T11:18:21;0.00;;;0.00;;
78336;SDS011;67610;51.588;7.002;2023-07-29T11:20:47;0.00;;;0.00;;
78336;SDS011;67610;51.588;7.002;2023-07-29T11:23:13;0.00;;;0.00;;
78336;SDS011;67610;51.588;7.002;2023-07-29T11:25:39;0.10;;;0.10;;
78336;SDS011;67610;51.588;7.002;2023-07-29T11:28:04;0.00;;;0.00;;
78336;SDS011;67610;51.588;7.002;2023-07-29T11:30:30;0.00;;;0.00;;
78336;SDS011;67610;51.588;7.002;2023-07-29T11:32:56;0.00;;;0.00;;
78336;SDS011;67610;51.588;7.002;2023-07-29T11:35:22;0.00;;;0.00;;
78336;SDS011;67610;51.588;7.002;2023-07-29T11:37:49;0.08;;;0.08;;
78336;SDS011;67610;51.588;7.002;2023-07-29T11:40:16;0.00;;;0.00;;
78336;SDS011;67610;51.588;7.002;2023-07-29T11:42:42;0.05;;;0.05;;
78336;SDS011;67610;51.588;7.002;2023-07-29T11:45:09;0.20;;;0.20;;
78336;SDS011;67610;51.588;7.002;2023-07-29T11:47:35;0.00;;;0.00;;
78336;SDS011;67610;51.588;7.002;2023-07-29T11:50:02;0.08;;;0.08;;
78336;SDS011;67610;51.588;7.002;2023-07-29T11:52:41;0.05;;;0.05;;
78336;SDS011;67610;51.588;7.002;2023-07-29T11:55:08;0.10;;;0.10;;
78336;SDS011;67610;51.588;7.002;2023-07-29T11:57:35;0.00;;;0.00;;
78336;SDS011;67610;51.588;7.002;2023-07-29T12:00:06;0.00;;;0.00;;
78336;SDS011;67610;51.588;7.002;2023-07-29T12:02:36;0.00;;;0.00;;
78336;SDS011;67610;51.588;7.002;2023-07-29T12:05:03;0.00;;;0.00;;
78336;SDS011;67610;51.588;7.002;2023-07-29T12:07:33;0.00;;;0.00;;
78336;SDS011;67610;51.588;7.002;2023-07-29T12:09:58;0.00;;;0.00;;
78336;SDS011;67610;51.588;7.002;2023-07-29T12:12:24;0.00;;;0.00;;
78336;SDS011;67610;51.588;7.002;2023-07-29T12:14:49;0.10;;;0.10;;
78336;SDS011;67610;51.588;7.002;2023-07-29T12:17:15;0.10;;;0.10;;
78336;SDS011;67610;51.588;7.002;2023-07-29T12:19:40;0.20;;;0.20;;
78336;SDS011;67610;51.588;7.002;2023-07-29T12:22:07;0.20;;;0.20;;
78336;SDS011;67610;51.588;7.002;2023-07-29T12:24:35;0.10;;;0.10;;
78336;SDS011;67610;51.588;7.002;2023-07-29T12:27:02;0.10;;;0.10;;
78336;SDS011;67610;51.588;7.002;2023-07-29T12:29:27;0.03;;;0.03;;
78336;SDS011;67610;51.588;7.002;2023-07-29T12:31:57;0.10;;;0.10;;
78336;SDS011;67610;51.588;7.002;2023-07-29T12:34:25;0.10;;;0.10;;
78336;SDS011;67610;51.588;7.002;2023-07-29T12:36:51;0.17;;;0.17;;
78336;SDS011;67610;51.588;7.002;2023-07-29T12:39:19;0.28;;;0.28;;
78336;SDS011;67610;51.588;7.002;2023-07-29T12:41:53;0.00;;;0.00;;
78336;SDS011;67610;51.588;7.002;2023-07-29T12:44:23;0.00;;;0.00;;
78336;SDS011;67610;51.588;7.002;2023-07-29T12:46:49;0.00;;;0.00;;
78336;SDS011;67610;51.588;7.002;2023-07-29T12:49:15;0.00;;;0.00;;
78336;SDS011;67610;51.588;7.002;2023-07-29T12:51:40;0.00;;;0.00;;
78336;SDS011;67610;51.588;7.002;2023-07-29T12:54:06;0.00;;;0.00;;
78336;SDS011;67610;51.588;7.002;2023-07-29T12:56:32;0.00;;;0.00;;
78336;SDS011;67610;51.588;7.002;2023-07-29T12:58:58;0.10;;;0.10;;
78336;SDS011;67610;51.588;7.002;2023-07-29T13:01:24;0.20;;;0.20;;
78336;SDS011;67610;51.588;7.002;2023-07-29T13:03:49;0.13;;;0.13;;
78336;SDS011;67610;51.588;7.002;2023-07-29T13:06:15;0.10;;;0.10;;
78336;SDS011;67610;51.588;7.002;2023-07-29T13:08:41;0.08;;;0.08;;
78336;SDS011;67610;51.588;7.002;2023-07-29T13:11:06;0.00;;;0.00;;
78336;SDS011;67610;51.588;7.002;2023-07-29T13:13:32;0.00;;;0.00;;
78336;SDS011;67610;51.588;7.002;2023-07-29T13:15:57;0.10;;;0.10;;
78336;SDS011;67610;51.588;7.002;2023-07-29T13:18:23;0.00;;;0.00;;
78336;SDS011;67610;51.588;7.002;2023-07-29T13:20:48;0.10;;;0.10;;
78336;SDS011;67610;51.588;7.002;2023-07-29T13:23:14;0.08;;;0.08;;
78336;SDS011;67610;51.588;7.002;2023-07-29T13:25:40;0.08;;;0.08;;
78336;SDS011;67610;51.588;7.002;2023-07-29T13:28:06;0.03;;;0.03;;
78336;SDS011;67610;51.588;7.002;2023-07-29T13:30:32;0.00;;;0.00;;
78336;SDS011;67610;51.588;7.002;2023-07-29T13:32:57;0.05;;;0.05;;
78336;SDS011;67610;51.588;7.002;2023-07-29T13:35:22;0.10;;;0.10;;
78336;SDS011;67610;51.588;7.002;2023-07-29T13:40:53;0.13;;;0.13;;
78336;SDS011;67610;51.588;7.002;2023-07-29T13:43:18;0.13;;;0.13;;
78336;SDS011;67610;51.588;7.002;2023-07-29T13:45:43;0.13;;;0.13;;
78336;SDS011;67610;51.588;7.002;2023-07-29T13:48:09;0.00;;;0.00;;
78336;SDS011;67610;51.588;7.002;2023-07-29T13:50:34;0.00;;;0.00;;
78336;SDS011;67610;51.588;7.002;2023-07-29T13:53:00;0.00;;;0.00;;
78336;SDS011;67610;51.588;7.002;2023-07-29T13:55:25;0.00;;;0.00;;
78336;SDS011;67610;51.588;7.002;2023-07-29T13:57:52;0.00;;;0.00;;
78336;SDS011;67610;51.588;7.002;2023-07-29T14:00:18;0.00;;;0.00;;
78336;SDS011;67610;51.588;7.002;2023-07-29T14:02:44;0.17;;;0.17;;
78336;SDS011;67610;51.588;7.002;2023-07-29T14:05:09;0.00;;;0.00;;
78336;SDS011;67610;51.588;7.002;2023-07-29T14:07:36;0.43;;;0.43;;
78336;SDS011;67610;51.588;7.002;2023-07-29T14:10:02;0.10;;;0.10;;
78336;SDS011;67610;51.588;7.002;2023-07-29T14:12:27;0.10;;;0.10;;
78336;SDS011;67610;51.588;7.002;2023-07-29T14:14:53;0.10;;;0.10;;
78336;SDS011;67610;51.588;7.002;2023-07-29T14:17:18;0.10;;;0.10;;
78336;SDS011;67610;51.588;7.002;2023-07-29T14:19:43;0.25;;;0.25;;
78336;SDS011;67610;51.588;7.002;2023-07-29T14:22:09;0.00;;;0.00;;
78336;SDS011;67610;51.588;7.002;2023-07-29T14:24:34;0.00;;;0.00;;
78336;SDS011;67610;51.588;7.002;2023-07-29T14:27:00;0.10;;;0.10;;
78336;SDS011;67610;51.588;7.002;2023-07-29T14:29:25;0.10;;;0.10;;
78336;SDS011;67610;51.588;7.002;2023-07-29T14:31:50;0.10;;;0.10;;
78336;SDS011;67610;51.588;7.002;2023-07-29T14:34:16;0.00;;;0.00;;
78336;SDS011;67610;51.588;7.002;2023-07-29T14:36:41;0.00;;;0.00;;
78336;SDS011;67610;51.588;7.002;2023-07-29T14:39:06;0.00;;;0.00;;
78336;SDS011;67610;51.588;7.002;2023-07-29T14:41:32;0.10;;;0.10;;
78336;SDS011;67610;51.588;7.002;2023-07-29T14:43:57;0.10;;;0.10;;
78336;SDS011;67610;51.588;7.002;2023-07-29T14:46:23;0.00;;;0.00;;
78336;SDS011;67610;51.588;7.002;2023-07-29T14:48:48;0.17;;;0.17;;
78336;SDS011;67610;51.588;7.002;2023-07-29T14:51:14;0.08;;;0.08;;
78336;SDS011;67610;51.588;7.002;2023-07-29T14:53:39;0.10;;;0.10;;
78336;SDS011;67610;51.588;7.002;2023-07-29T14:56:05;0.00;;;0.00;;
78336;SDS011;67610;51.588;7.002;2023-07-29T14:58:30;0.00;;;0.00;;
78336;SDS011;67610;51.588;7.002;2023-07-29T15:00:56;0.00;;;0.00;;
78336;SDS011;67610;51.588;7.002;2023-07-29T15:03:21;0.00;;;0.00;;
78336;SDS011;67610;51.588;7.002;2023-07-29T15:05:46;0.00;;;0.00;;
78336;SDS011;67610;51.588;7.002;2023-07-29T15:08:12;0.00;;;0.00;;
78336;SDS011;67610;51.588;7.002;2023-07-29T15:10:37;0.00;;;0.00;;
78336;SDS011;67610;51.588;7.002;2023-07-29T15:13:02;0.00;;;0.00;;
78336;SDS011;67610;51.588;7.002;2023-07-29T15:15:28;0.00;;;0.00;;